sensor_id;sensor_type;location;lat;lon;timestamp;P1;durP1;ratioP1;P2;durP2;ratioP2
77384;SDS011;66443;49.122;8.346;2023-12-22T00:02:19;0.40;;;0.40;;
77384;SDS011;66443;49.122;8.346;2023-12-22T00:04:45;0.20;;;0.20;;
77384;SDS011;66443;49.122;8.346;2023-12-22T00:07:11;0.10;;;0.10;;
77384;SDS011;66443;49.122;8.346;2023-12-22T00:09:36;0.20;;;0.20;;
77384;SDS011;66443;49.122;8.346;2023-12-22T00:12:01;0.20;;;0.20;;
77384;SDS011;66443;49.122;8.346;2023-12-22T00:14:26;0.40;;;0.40;;
77384;SDS011;66443;49.122;8.346;2023-12-22T00:16:52;0.30;;;0.30;;
77384;SDS011;66443;49.122;8.346;2023-12-22T00:19:17;0.20;;;0.20;;
77384;SDS011;66443;49.122;8.346;2023-12-22T00:21:42;0.20;;;0.20;;
77384;SDS011;66443;49.122;8.346;2023-12-22T00:24:07;0.20;;;0.20;;
77384;SDS011;66443;49.122;8.346;2023-12-22T00:26:32;0.93;;;0.93;;
77384;SDS011;66443;49.122;8.346;2023-12-22T00:28:58;0.50;;;0.50;;
77384;SDS011;66443;49.122;8.346;2023-12-22T00:31:23;0.10;;;0.10;;
77384;SDS011;66443;49.122;8.346;2023-12-22T00:33:48;0.20;;;0.20;;
77384;SDS011;66443;49.122;8.346;2023-12-22T00:36:14;0.20;;;0.20;;
77384;SDS011;66443;49.122;8.346;2023-12-22T00:38:39;0.10;;;0.10;;
77384;SDS011;66443;49.122;8.346;2023-12-22T00:41:04;0.57;;;0.57;;
77384;SDS011;66443;49.122;8.346;2023-12-22T00:43:29;0.17;;;0.17;;
77384;SDS011;66443;49.122;8.346;2023-12-22T00:45:55;0.20;;;0.20;;
77384;SDS011;66443;49.122;8.346;2023-12-22T00:48:22;0.17;;;0.17;;
77384;SDS011;66443;49.122;8.346;2023-12-22T00:50:47;0.10;;;0.10;;
77384;SDS011;66443;49.122;8.346;2023-12-22T00:53:12;0.53;;;0.53;;
77384;SDS011;66443;49.122;8.346;2023-12-22T00:55:38;0.20;;;0.20;;
77384;SDS011;66443;49.122;8.346;2023-12-22T00:58:03;0.20;;;0.20;;
77384;SDS011;66443;49.122;8.346;2023-12-22T01:00:29;0.13;;;0.13;;
77384;SDS011;66443;49.122;8.346;2023-12-22T01:02:54;0.33;;;0.33;;
77384;SDS011;66443;49.122;8.346;2023-12-22T01:05:19;0.20;;;0.20;;
77384;SDS011;66443;49.122;8.346;2023-12-22T01:07:44;1.20;;;0.90;;
77384;SDS011;66443;49.122;8.346;2023-12-22T01:10:09;0.10;;;0.10;;
77384;SDS011;66443;49.122;8.346;2023-12-22T01:12:35;0.10;;;0.10;;
77384;SDS011;66443;49.122;8.346;2023-12-22T01:15:01;0.50;;;0.50;;
77384;SDS011;66443;49.122;8.346;2023-12-22T01:17:26;0.20;;;0.20;;
77384;SDS011;66443;49.122;8.346;2023-12-22T01:19:51;0.30;;;0.30;;
77384;SDS011;66443;49.122;8.346;2023-12-22T01:22:16;0.13;;;0.13;;
77384;SDS011;66443;49.122;8.346;2023-12-22T01:24:41;0.47;;;0.47;;
77384;SDS011;66443;49.122;8.346;2023-12-22T01:27:08;0.10;;;0.10;;
77384;SDS011;66443;49.122;8.346;2023-12-22T01:29:34;0.30;;;0.30;;
77384;SDS011;66443;49.122;8.346;2023-12-22T01:31:59;0.10;;;0.10;;
77384;SDS011;66443;49.122;8.346;2023-12-22T01:34:24;0.10;;;0.10;;
77384;SDS011;66443;49.122;8.346;2023-12-22T01:36:49;0.20;;;0.20;;
77384;SDS011;66443;49.122;8.346;2023-12-22T01:39:15;0.20;;;0.20;;
77384;SDS011;66443;49.122;8.346;2023-12-22T01:41:40;0.20;;;0.20;;
77384;SDS011;66443;49.122;8.346;2023-12-22T01:44:05;0.20;;;0.20;;
77384;SDS011;66443;49.122;8.346;2023-12-22T01:46:31;0.40;;;0.40;;
77384;SDS011;66443;49.122;8.346;2023-12-22T01:48:56;0.20;;;0.20;;
77384;SDS011;66443;49.122;8.346;2023-12-22T01:51:21;0.20;;;0.20;;
77384;SDS011;66443;49.122;8.346;2023-12-22T01:53:46;0.60;;;0.60;;
77384;SDS011;66443;49.122;8.346;2023-12-22T01:56:12;0.20;;;0.20;;
77384;SDS011;66443;49.122;8.346;2023-12-22T01:58:37;0.63;;;0.63;;
77384;SDS011;66443;49.122;8.346;2023-12-22T02:01:02;0.10;;;0.10;;
77384;SDS011;66443;49.122;8.346;2023-12-22T02:03:28;0.10;;;0.10;;
77384;SDS011;66443;49.122;8.346;2023-12-22T02:05:53;0.17;;;0.17;;
77384;SDS011;66443;49.122;8.346;2023-12-22T02:08:19;0.23;;;0.23;;
77384;SDS011;66443;49.122;8.346;2023-12-22T02:10:46;0.10;;;0.10;;
77384;SDS011;66443;49.122;8.346;2023-12-22T02:13:11;0.22;;;0.22;;
77384;SDS011;66443;49.122;8.346;2023-12-22T02:15:37;0.20;;;0.20;;
77384;SDS011;66443;49.122;8.346;2023-12-22T02:18:05;0.10;;;0.10;;
77384;SDS011;66443;49.122;8.346;2023-12-22T02:20:31;0.10;;;0.10;;
77384;SDS011;66443;49.122;8.346;2023-12-22T02:22:57;1.07;;;1.07;;
77384;SDS011;66443;49.122;8.346;2023-12-22T02:25:22;0.47;;;0.47;;
77384;SDS011;66443;49.122;8.346;2023-12-22T02:27:48;0.20;;;0.20;;
77384;SDS011;66443;49.122;8.346;2023-12-22T02:30:26;0.30;;;0.30;;
77384;SDS011;66443;49.122;8.346;2023-12-22T02:32:56;0.63;;;0.63;;
77384;SDS011;66443;49.122;8.346;2023-12-22T02:35:24;0.20;;;0.20;;
77384;SDS011;66443;49.122;8.346;2023-12-22T02:37:50;0.20;;;0.20;;
77384;SDS011;66443;49.122;8.346;2023-12-22T02:40:16;0.20;;;0.20;;
77384;SDS011;66443;49.122;8.346;2023-12-22T02:42:42;0.20;;;0.20;;
77384;SDS011;66443;49.122;8.346;2023-12-22T02:45:12;0.10;;;0.10;;
77384;SDS011;66443;49.122;8.346;2023-12-22T02:47:37;0.20;;;0.20;;
77384;SDS011;66443;49.122;8.346;2023-12-22T02:50:03;1.07;;;1.07;;
77384;SDS011;66443;49.122;8.346;2023-12-22T02:52:28;0.17;;;0.17;;
77384;SDS011;66443;49.122;8.346;2023-12-22T02:54:53;0.20;;;0.20;;
77384;SDS011;66443;49.122;8.346;2023-12-22T02:57:18;0.20;;;0.20;;
77384;SDS011;66443;49.122;8.346;2023-12-22T02:59:43;0.27;;;0.27;;
77384;SDS011;66443;49.122;8.346;2023-12-22T03:02:08;0.20;;;0.20;;
77384;SDS011;66443;49.122;8.346;2023-12-22T03:04:34;0.20;;;0.20;;
77384;SDS011;66443;49.122;8.346;2023-12-22T03:06:59;0.20;;;0.20;;
77384;SDS011;66443;49.122;8.346;2023-12-22T03:09:24;0.40;;;0.40;;
77384;SDS011;66443;49.122;8.346;2023-12-22T03:11:49;0.27;;;0.27;;
77384;SDS011;66443;49.122;8.346;2023-12-22T03:14:16;0.67;;;0.50;;
77384;SDS011;66443;49.122;8.346;2023-12-22T03:16:42;0.50;;;0.50;;
77384;SDS011;66443;49.122;8.346;2023-12-22T03:19:07;0.20;;;0.20;;
77384;SDS011;66443;49.122;8.346;2023-12-22T03:21:32;1.07;;;0.50;;
77384;SDS011;66443;49.122;8.346;2023-12-22T03:23:57;0.10;;;0.10;;
77384;SDS011;66443;49.122;8.346;2023-12-22T03:26:22;0.30;;;0.30;;
77384;SDS011;66443;49.122;8.346;2023-12-22T03:28:47;0.10;;;0.10;;
77384;SDS011;66443;49.122;8.346;2023-12-22T03:31:13;0.20;;;0.20;;
77384;SDS011;66443;49.122;8.346;2023-12-22T03:33:38;0.20;;;0.20;;
77384;SDS011;66443;49.122;8.346;2023-12-22T03:36:03;0.10;;;0.10;;
77384;SDS011;66443;49.122;8.346;2023-12-22T03:38:28;0.10;;;0.10;;
77384;SDS011;66443;49.122;8.346;2023-12-22T03:40:53;0.30;;;0.30;;
77384;SDS011;66443;49.122;8.346;2023-12-22T03:43:19;0.20;;;0.20;;
77384;SDS011;66443;49.122;8.346;2023-12-22T03:45:44;0.40;;;0.40;;
77384;SDS011;66443;49.122;8.346;2023-12-22T03:48:09;0.10;;;0.10;;
77384;SDS011;66443;49.122;8.346;2023-12-22T03:50:34;0.37;;;0.37;;
77384;SDS011;66443;49.122;8.346;2023-12-22T03:52:59;9.50;;;1.23;;
77384;SDS011;66443;49.122;8.346;2023-12-22T03:55:25;0.20;;;0.20;;
77384;SDS011;66443;49.122;8.346;2023-12-22T03:57:50;0.20;;;0.20;;
77384;SDS011;66443;49.122;8.346;2023-12-22T04:00:15;0.13;;;0.13;;
77384;SDS011;66443;49.122;8.346;2023-12-22T04:02:41;1.17;;;1.17;;
77384;SDS011;66443;49.122;8.346;2023-12-22T04:05:06;0.20;;;0.20;;
77384;SDS011;66443;49.122;8.346;2023-12-22T04:07:32;0.20;;;0.20;;
77384;SDS011;66443;49.122;8.346;2023-12-22T04:09:57;0.70;;;0.70;;
77384;SDS011;66443;49.122;8.346;2023-12-22T04:12:22;0.83;;;0.70;;
77384;SDS011;66443;49.122;8.346;2023-12-22T04:14:47;0.10;;;0.10;;
77384;SDS011;66443;49.122;8.346;2023-12-22T04:17:13;1.10;;;1.10;;
77384;SDS011;66443;49.122;8.346;2023-12-22T04:19:38;5.50;;;1.43;;
77384;SDS011;66443;49.122;8.346;2023-12-22T04:22:03;0.20;;;0.20;;
77384;SDS011;66443;49.122;8.346;2023-12-22T04:24:28;0.20;;;0.20;;
77384;SDS011;66443;49.122;8.346;2023-12-22T04:26:53;0.20;;;0.20;;
77384;SDS011;66443;49.122;8.346;2023-12-22T04:29:18;0.20;;;0.20;;
77384;SDS011;66443;49.122;8.346;2023-12-22T04:31:44;0.10;;;0.10;;
77384;SDS011;66443;49.122;8.346;2023-12-22T04:34:09;0.10;;;0.10;;
77384;SDS011;66443;49.122;8.346;2023-12-22T04:36:35;0.10;;;0.10;;
77384;SDS011;66443;49.122;8.346;2023-12-22T04:39:00;0.10;;;0.10;;
77384;SDS011;66443;49.122;8.346;2023-12-22T04:41:25;0.40;;;0.40;;
77384;SDS011;66443;49.122;8.346;2023-12-22T04:43:50;0.20;;;0.20;;
77384;SDS011;66443;49.122;8.346;2023-12-22T04:46:15;0.17;;;0.17;;
77384;SDS011;66443;49.122;8.346;2023-12-22T04:48:41;0.20;;;0.20;;
77384;SDS011;66443;49.122;8.346;2023-12-22T04:51:06;0.20;;;0.20;;
77384;SDS011;66443;49.122;8.346;2023-12-22T04:53:31;0.10;;;0.10;;
77384;SDS011;66443;49.122;8.346;2023-12-22T04:55:56;0.30;;;0.30;;
77384;SDS011;66443;49.122;8.346;2023-12-22T04:58:21;0.77;;;0.77;;
77384;SDS011;66443;49.122;8.346;2023-12-22T05:00:47;0.10;;;0.10;;
77384;SDS011;66443;49.122;8.346;2023-12-22T05:03:12;0.43;;;0.43;;
77384;SDS011;66443;49.122;8.346;2023-12-22T05:05:37;0.67;;;0.67;;
77384;SDS011;66443;49.122;8.346;2023-12-22T05:08:03;16.10;;;1.07;;
77384;SDS011;66443;49.122;8.346;2023-12-22T05:10:28;0.10;;;0.10;;
77384;SDS011;66443;49.122;8.346;2023-12-22T05:12:54;0.40;;;0.40;;
77384;SDS011;66443;49.122;8.346;2023-12-22T05:15:19;0.20;;;0.20;;
77384;SDS011;66443;49.122;8.346;2023-12-22T05:17:44;0.20;;;0.20;;
77384;SDS011;66443;49.122;8.346;2023-12-22T05:20:09;1.40;;;1.30;;
77384;SDS011;66443;49.122;8.346;2023-12-22T05:22:36;0.50;;;0.50;;
77384;SDS011;66443;49.122;8.346;2023-12-22T05:25:01;0.20;;;0.20;;
77384;SDS011;66443;49.122;8.346;2023-12-22T05:27:26;0.20;;;0.20;;
77384;SDS011;66443;49.122;8.346;2023-12-22T05:29:51;0.20;;;0.20;;
77384;SDS011;66443;49.122;8.346;2023-12-22T05:32:16;0.35;;;0.35;;
77384;SDS011;66443;49.122;8.346;2023-12-22T05:34:42;0.40;;;0.40;;
77384;SDS011;66443;49.122;8.346;2023-12-22T05:37:07;0.20;;;0.20;;
77384;SDS011;66443;49.122;8.346;2023-12-22T05:39:32;0.23;;;0.23;;
77384;SDS011;66443;49.122;8.346;2023-12-22T05:41:57;0.10;;;0.10;;
77384;SDS011;66443;49.122;8.346;2023-12-22T05:44:23;0.13;;;0.13;;
77384;SDS011;66443;49.122;8.346;2023-12-22T05:46:49;0.20;;;0.20;;
77384;SDS011;66443;49.122;8.346;2023-12-22T05:49:15;0.10;;;0.10;;
77384;SDS011;66443;49.122;8.346;2023-12-22T05:51:40;0.10;;;0.10;;
77384;SDS011;66443;49.122;8.346;2023-12-22T05:54:08;0.27;;;0.27;;
77384;SDS011;66443;49.122;8.346;2023-12-22T05:56:34;0.20;;;0.20;;
77384;SDS011;66443;49.122;8.346;2023-12-22T05:58:59;0.97;;;0.97;;
77384;SDS011;66443;49.122;8.346;2023-12-22T06:01:24;0.63;;;0.33;;
77384;SDS011;66443;49.122;8.346;2023-12-22T06:03:49;2.30;;;2.10;;
77384;SDS011;66443;49.122;8.346;2023-12-22T06:06:14;0.43;;;0.43;;
77384;SDS011;66443;49.122;8.346;2023-12-22T06:08:40;0.50;;;0.50;;
77384;SDS011;66443;49.122;8.346;2023-12-22T06:11:05;0.40;;;0.40;;
77384;SDS011;66443;49.122;8.346;2023-12-22T06:13:30;0.20;;;0.20;;
77384;SDS011;66443;49.122;8.346;2023-12-22T06:15:55;0.30;;;0.30;;
77384;SDS011;66443;49.122;8.346;2023-12-22T06:18:21;0.37;;;0.37;;
77384;SDS011;66443;49.122;8.346;2023-12-22T06:20:46;11.70;;;1.10;;
77384;SDS011;66443;49.122;8.346;2023-12-22T06:23:11;0.20;;;0.20;;
77384;SDS011;66443;49.122;8.346;2023-12-22T06:25:36;0.10;;;0.10;;
77384;SDS011;66443;49.122;8.346;2023-12-22T06:28:01;0.17;;;0.17;;
77384;SDS011;66443;49.122;8.346;2023-12-22T06:30:26;0.20;;;0.20;;
77384;SDS011;66443;49.122;8.346;2023-12-22T06:32:52;0.13;;;0.13;;
77384;SDS011;66443;49.122;8.346;2023-12-22T06:35:17;0.67;;;0.67;;
77384;SDS011;66443;49.122;8.346;2023-12-22T06:37:42;0.20;;;0.20;;
77384;SDS011;66443;49.122;8.346;2023-12-22T06:40:08;0.20;;;0.20;;
77384;SDS011;66443;49.122;8.346;2023-12-22T06:42:33;0.63;;;0.63;;
77384;SDS011;66443;49.122;8.346;2023-12-22T06:44:58;0.20;;;0.20;;
77384;SDS011;66443;49.122;8.346;2023-12-22T06:47:23;0.20;;;0.20;;
77384;SDS011;66443;49.122;8.346;2023-12-22T06:49:49;1.60;;;1.50;;
77384;SDS011;66443;49.122;8.346;2023-12-22T06:52:14;0.10;;;0.10;;
77384;SDS011;66443;49.122;8.346;2023-12-22T06:54:39;0.60;;;0.60;;
77384;SDS011;66443;49.122;8.346;2023-12-22T06:57:04;0.27;;;0.27;;
77384;SDS011;66443;49.122;8.346;2023-12-22T06:59:29;0.20;;;0.20;;
77384;SDS011;66443;49.122;8.346;2023-12-22T07:01:54;0.10;;;0.10;;
77384;SDS011;66443;49.122;8.346;2023-12-22T07:04:20;2.43;;;1.50;;
77384;SDS011;66443;49.122;8.346;2023-12-22T07:06:45;0.73;;;0.73;;
77384;SDS011;66443;49.122;8.346;2023-12-22T07:11:45;1.53;;;1.43;;
77384;SDS011;66443;49.122;8.346;2023-12-22T07:14:10;0.30;;;0.30;;
77384;SDS011;66443;49.122;8.346;2023-12-22T07:16:36;0.20;;;0.20;;
77384;SDS011;66443;49.122;8.346;2023-12-22T07:19:01;0.30;;;0.30;;
77384;SDS011;66443;49.122;8.346;2023-12-22T07:21:26;0.83;;;0.83;;
77384;SDS011;66443;49.122;8.346;2023-12-22T07:23:51;0.30;;;0.30;;
77384;SDS011;66443;49.122;8.346;2023-12-22T07:26:17;0.13;;;0.13;;
77384;SDS011;66443;49.122;8.346;2023-12-22T07:28:42;0.30;;;0.30;;
77384;SDS011;66443;49.122;8.346;2023-12-22T07:31:07;0.35;;;0.35;;
77384;SDS011;66443;49.122;8.346;2023-12-22T07:33:32;0.20;;;0.20;;
77384;SDS011;66443;49.122;8.346;2023-12-22T07:35:58;0.13;;;0.13;;
77384;SDS011;66443;49.122;8.346;2023-12-22T07:38:23;0.23;;;0.23;;
77384;SDS011;66443;49.122;8.346;2023-12-22T07:40:48;0.53;;;0.53;;
77384;SDS011;66443;49.122;8.346;2023-12-22T07:43:14;0.20;;;0.20;;
77384;SDS011;66443;49.122;8.346;2023-12-22T07:45:39;0.13;;;0.13;;
77384;SDS011;66443;49.122;8.346;2023-12-22T07:48:04;2.43;;;0.97;;
77384;SDS011;66443;49.122;8.346;2023-12-22T07:50:30;0.30;;;0.30;;
77384;SDS011;66443;49.122;8.346;2023-12-22T07:52:55;0.93;;;0.93;;
77384;SDS011;66443;49.122;8.346;2023-12-22T07:55:20;0.30;;;0.30;;
77384;SDS011;66443;49.122;8.346;2023-12-22T07:57:45;0.30;;;0.30;;
77384;SDS011;66443;49.122;8.346;2023-12-22T08:00:11;0.20;;;0.20;;
77384;SDS011;66443;49.122;8.346;2023-12-22T08:02:36;0.20;;;0.20;;
77384;SDS011;66443;49.122;8.346;2023-12-22T08:05:02;0.20;;;0.20;;
77384;SDS011;66443;49.122;8.346;2023-12-22T08:07:27;0.20;;;0.20;;
77384;SDS011;66443;49.122;8.346;2023-12-22T08:09:52;0.20;;;0.20;;
77384;SDS011;66443;49.122;8.346;2023-12-22T08:12:17;1.13;;;1.13;;
77384;SDS011;66443;49.122;8.346;2023-12-22T08:14:42;0.20;;;0.20;;
77384;SDS011;66443;49.122;8.346;2023-12-22T08:17:08;0.60;;;0.60;;
77384;SDS011;66443;49.122;8.346;2023-12-22T08:19:33;0.30;;;0.30;;
77384;SDS011;66443;49.122;8.346;2023-12-22T08:21:58;2.90;;;2.17;;
77384;SDS011;66443;49.122;8.346;2023-12-22T08:24:23;0.30;;;0.30;;
77384;SDS011;66443;49.122;8.346;2023-12-22T08:26:49;0.20;;;0.20;;
77384;SDS011;66443;49.122;8.346;2023-12-22T08:29:14;0.40;;;0.40;;
77384;SDS011;66443;49.122;8.346;2023-12-22T08:31:40;0.30;;;0.30;;
77384;SDS011;66443;49.122;8.346;2023-12-22T08:34:06;0.20;;;0.20;;
77384;SDS011;66443;49.122;8.346;2023-12-22T08:36:31;0.50;;;0.50;;
77384;SDS011;66443;49.122;8.346;2023-12-22T08:38:57;0.20;;;0.20;;
77384;SDS011;66443;49.122;8.346;2023-12-22T08:41:22;0.20;;;0.20;;
77384;SDS011;66443;49.122;8.346;2023-12-22T08:43:47;0.20;;;0.20;;
77384;SDS011;66443;49.122;8.346;2023-12-22T08:46:12;1.60;;;1.60;;
77384;SDS011;66443;49.122;8.346;2023-12-22T08:48:38;0.40;;;0.40;;
77384;SDS011;66443;49.122;8.346;2023-12-22T08:51:03;1.50;;;1.40;;
77384;SDS011;66443;49.122;8.346;2023-12-22T08:53:29;2.00;;;1.90;;
77384;SDS011;66443;49.122;8.346;2023-12-22T08:55:58;0.20;;;0.20;;
77384;SDS011;66443;49.122;8.346;2023-12-22T08:58:23;0.27;;;0.27;;
77384;SDS011;66443;49.122;8.346;2023-12-22T09:00:48;0.70;;;0.67;;
77384;SDS011;66443;49.122;8.346;2023-12-22T09:03:14;0.27;;;0.27;;
77384;SDS011;66443;49.122;8.346;2023-12-22T09:05:39;22.43;;;1.93;;
77384;SDS011;66443;49.122;8.346;2023-12-22T09:08:04;2.23;;;0.60;;
77384;SDS011;66443;49.122;8.346;2023-12-22T09:10:30;0.40;;;0.40;;
77384;SDS011;66443;49.122;8.346;2023-12-22T09:12:56;6.83;;;2.40;;
77384;SDS011;66443;49.122;8.346;2023-12-22T09:15:21;8.13;;;2.30;;
77384;SDS011;66443;49.122;8.346;2023-12-22T09:17:46;7.77;;;2.47;;
77384;SDS011;66443;49.122;8.346;2023-12-22T09:20:11;8.63;;;2.40;;
77384;SDS011;66443;49.122;8.346;2023-12-22T09:22:36;14.83;;;3.03;;
77384;SDS011;66443;49.122;8.346;2023-12-22T09:25:02;8.70;;;2.17;;
77384;SDS011;66443;49.122;8.346;2023-12-22T09:27:28;12.57;;;2.40;;
77384;SDS011;66443;49.122;8.346;2023-12-22T09:29:55;8.40;;;2.27;;
77384;SDS011;66443;49.122;8.346;2023-12-22T09:32:20;8.40;;;2.30;;
77384;SDS011;66443;49.122;8.346;2023-12-22T09:34:45;9.20;;;2.33;;
77384;SDS011;66443;49.122;8.346;2023-12-22T09:37:10;6.07;;;3.20;;
77384;SDS011;66443;49.122;8.346;2023-12-22T09:39:35;11.73;;;2.63;;
77384;SDS011;66443;49.122;8.346;2023-12-22T09:42:01;8.87;;;2.63;;
77384;SDS011;66443;49.122;8.346;2023-12-22T09:44:26;13.47;;;2.93;;
77384;SDS011;66443;49.122;8.346;2023-12-22T09:46:55;16.60;;;3.60;;
77384;SDS011;66443;49.122;8.346;2023-12-22T09:49:20;12.10;;;3.87;;
77384;SDS011;66443;49.122;8.346;2023-12-22T09:51:47;9.53;;;2.87;;
77384;SDS011;66443;49.122;8.346;2023-12-22T09:54:12;13.73;;;2.27;;
77384;SDS011;66443;49.122;8.346;2023-12-22T09:56:38;11.43;;;2.60;;
77384;SDS011;66443;49.122;8.346;2023-12-22T09:59:16;10.10;;;2.80;;
77384;SDS011;66443;49.122;8.346;2023-12-22T10:01:42;13.30;;;2.50;;
77384;SDS011;66443;49.122;8.346;2023-12-22T10:04:09;9.60;;;2.83;;
77384;SDS011;66443;49.122;8.346;2023-12-22T10:06:34;9.03;;;2.37;;
77384;SDS011;66443;49.122;8.346;2023-12-22T10:09:00;8.73;;;2.67;;
77384;SDS011;66443;49.122;8.346;2023-12-22T10:11:26;11.63;;;2.83;;
77384;SDS011;66443;49.122;8.346;2023-12-22T10:13:52;6.10;;;2.60;;
77384;SDS011;66443;49.122;8.346;2023-12-22T10:16:18;8.17;;;2.77;;
77384;SDS011;66443;49.122;8.346;2023-12-22T10:18:44;7.43;;;2.20;;
77384;SDS011;66443;49.122;8.346;2023-12-22T10:21:09;11.17;;;2.83;;
77384;SDS011;66443;49.122;8.346;2023-12-22T10:23:34;10.90;;;2.70;;
77384;SDS011;66443;49.122;8.346;2023-12-22T10:25:59;9.70;;;2.43;;
77384;SDS011;66443;49.122;8.346;2023-12-22T10:28:27;6.23;;;2.47;;
77384;SDS011;66443;49.122;8.346;2023-12-22T10:30:52;11.00;;;2.60;;
77384;SDS011;66443;49.122;8.346;2023-12-22T10:33:18;11.70;;;2.37;;
77384;SDS011;66443;49.122;8.346;2023-12-22T10:35:43;15.23;;;3.30;;
77384;SDS011;66443;49.122;8.346;2023-12-22T10:38:08;9.07;;;2.80;;
77384;SDS011;66443;49.122;8.346;2023-12-22T10:40:36;15.37;;;3.00;;
77384;SDS011;66443;49.122;8.346;2023-12-22T10:43:02;9.57;;;2.13;;
77384;SDS011;66443;49.122;8.346;2023-12-22T10:45:27;16.80;;;3.33;;
77384;SDS011;66443;49.122;8.346;2023-12-22T10:47:54;9.20;;;2.67;;
77384;SDS011;66443;49.122;8.346;2023-12-22T10:50:19;10.10;;;2.80;;
77384;SDS011;66443;49.122;8.346;2023-12-22T10:52:50;8.43;;;3.20;;
77384;SDS011;66443;49.122;8.346;2023-12-22T10:55:16;12.23;;;3.50;;
77384;SDS011;66443;49.122;8.346;2023-12-22T10:57:41;9.17;;;2.70;;
77384;SDS011;66443;49.122;8.346;2023-12-22T11:00:06;12.73;;;2.70;;
77384;SDS011;66443;49.122;8.346;2023-12-22T11:02:33;9.60;;;3.60;;
77384;SDS011;66443;49.122;8.346;2023-12-22T11:07:25;10.53;;;3.20;;
77384;SDS011;66443;49.122;8.346;2023-12-22T11:09:51;12.67;;;2.23;;
77384;SDS011;66443;49.122;8.346;2023-12-22T11:12:16;4.57;;;2.17;;
77384;SDS011;66443;49.122;8.346;2023-12-22T11:14:42;8.83;;;2.70;;
77384;SDS011;66443;49.122;8.346;2023-12-22T11:17:07;12.30;;;2.30;;
77384;SDS011;66443;49.122;8.346;2023-12-22T11:19:33;9.93;;;2.60;;
77384;SDS011;66443;49.122;8.346;2023-12-22T11:22:00;5.47;;;2.70;;
77384;SDS011;66443;49.122;8.346;2023-12-22T11:24:26;12.40;;;2.57;;
77384;SDS011;66443;49.122;8.346;2023-12-22T11:26:53;7.73;;;2.37;;
77384;SDS011;66443;49.122;8.346;2023-12-22T11:29:19;4.70;;;2.20;;
77384;SDS011;66443;49.122;8.346;2023-12-22T11:31:45;7.13;;;2.20;;
77384;SDS011;66443;49.122;8.346;2023-12-22T11:34:12;11.73;;;2.57;;
77384;SDS011;66443;49.122;8.346;2023-12-22T11:36:38;8.30;;;2.47;;
77384;SDS011;66443;49.122;8.346;2023-12-22T11:39:04;9.07;;;2.00;;
77384;SDS011;66443;49.122;8.346;2023-12-22T11:41:31;5.50;;;2.40;;
77384;SDS011;66443;49.122;8.346;2023-12-22T11:43:57;2.60;;;1.63;;
77384;SDS011;66443;49.122;8.346;2023-12-22T11:46:23;4.43;;;1.60;;
77384;SDS011;66443;49.122;8.346;2023-12-22T11:48:51;3.77;;;1.57;;
77384;SDS011;66443;49.122;8.346;2023-12-22T11:51:17;3.63;;;1.67;;
77384;SDS011;66443;49.122;8.346;2023-12-22T11:53:42;7.43;;;2.33;;
77384;SDS011;66443;49.122;8.346;2023-12-22T11:56:08;5.83;;;2.53;;
77384;SDS011;66443;49.122;8.346;2023-12-22T12:01:00;3.43;;;1.80;;
77384;SDS011;66443;49.122;8.346;2023-12-22T12:03:26;5.17;;;1.93;;
77384;SDS011;66443;49.122;8.346;2023-12-22T12:06:09;4.17;;;1.40;;
77384;SDS011;66443;49.122;8.346;2023-12-22T12:08:34;4.03;;;1.57;;
77384;SDS011;66443;49.122;8.346;2023-12-22T12:11:00;3.60;;;1.60;;
77384;SDS011;66443;49.122;8.346;2023-12-22T12:13:28;1.97;;;1.13;;
77384;SDS011;66443;49.122;8.346;2023-12-22T12:15:53;1.37;;;1.13;;
77384;SDS011;66443;49.122;8.346;2023-12-22T12:18:23;2.53;;;0.97;;
77384;SDS011;66443;49.122;8.346;2023-12-22T12:20:48;4.37;;;1.00;;
77384;SDS011;66443;49.122;8.346;2023-12-22T12:23:14;2.30;;;1.20;;
77384;SDS011;66443;49.122;8.346;2023-12-22T12:25:40;6.70;;;1.60;;
77384;SDS011;66443;49.122;8.346;2023-12-22T12:28:06;1.80;;;1.13;;
77384;SDS011;66443;49.122;8.346;2023-12-22T12:30:33;4.73;;;1.30;;
77384;SDS011;66443;49.122;8.346;2023-12-22T12:32:59;2.60;;;1.07;;
77384;SDS011;66443;49.122;8.346;2023-12-22T12:35:30;1.00;;;0.90;;
77384;SDS011;66443;49.122;8.346;2023-12-22T12:37:56;9.93;;;1.20;;
77384;SDS011;66443;49.122;8.346;2023-12-22T12:40:23;2.27;;;1.17;;
77384;SDS011;66443;49.122;8.346;2023-12-22T12:42:49;3.43;;;1.80;;
77384;SDS011;66443;49.122;8.346;2023-12-22T12:45:15;1.70;;;1.07;;
77384;SDS011;66443;49.122;8.346;2023-12-22T12:47:40;3.33;;;1.97;;
77384;SDS011;66443;49.122;8.346;2023-12-22T12:50:05;2.03;;;1.40;;
77384;SDS011;66443;49.122;8.346;2023-12-22T12:52:30;3.47;;;1.80;;
77384;SDS011;66443;49.122;8.346;2023-12-22T12:54:56;2.00;;;1.30;;
77384;SDS011;66443;49.122;8.346;2023-12-22T12:57:23;1.53;;;1.30;;
77384;SDS011;66443;49.122;8.346;2023-12-22T12:59:49;1.40;;;1.20;;
77384;SDS011;66443;49.122;8.346;2023-12-22T13:02:17;1.43;;;1.17;;
77384;SDS011;66443;49.122;8.346;2023-12-22T13:04:43;2.40;;;1.90;;
77384;SDS011;66443;49.122;8.346;2023-12-22T13:07:08;7.10;;;3.13;;
77384;SDS011;66443;49.122;8.346;2023-12-22T13:09:35;1.93;;;1.70;;
77384;SDS011;66443;49.122;8.346;2023-12-22T13:12:00;1.20;;;1.13;;
77384;SDS011;66443;49.122;8.346;2023-12-22T13:14:26;1.83;;;0.93;;
77384;SDS011;66443;49.122;8.346;2023-12-22T13:16:52;1.00;;;1.00;;
77384;SDS011;66443;49.122;8.346;2023-12-22T13:19:20;1.83;;;1.00;;
77384;SDS011;66443;49.122;8.346;2023-12-22T13:21:45;1.10;;;1.00;;
77384;SDS011;66443;49.122;8.346;2023-12-22T13:24:14;1.43;;;1.00;;
77384;SDS011;66443;49.122;8.346;2023-12-22T13:26:41;2.03;;;1.17;;
77384;SDS011;66443;49.122;8.346;2023-12-22T13:29:06;1.00;;;1.00;;
77384;SDS011;66443;49.122;8.346;2023-12-22T13:31:32;1.07;;;0.83;;
77384;SDS011;66443;49.122;8.346;2023-12-22T13:33:58;1.03;;;1.03;;
77384;SDS011;66443;49.122;8.346;2023-12-22T13:36:23;0.97;;;0.97;;
77384;SDS011;66443;49.122;8.346;2023-12-22T13:38:48;1.13;;;1.13;;
77384;SDS011;66443;49.122;8.346;2023-12-22T13:41:14;0.87;;;0.87;;
77384;SDS011;66443;49.122;8.346;2023-12-22T13:43:39;1.13;;;0.90;;
77384;SDS011;66443;49.122;8.346;2023-12-22T13:46:05;1.00;;;0.80;;
77384;SDS011;66443;49.122;8.346;2023-12-22T13:48:32;0.97;;;0.90;;
77384;SDS011;66443;49.122;8.346;2023-12-22T13:50:58;1.10;;;1.10;;
77384;SDS011;66443;49.122;8.346;2023-12-22T13:53:24;1.07;;;0.93;;
77384;SDS011;66443;49.122;8.346;2023-12-22T13:55:56;0.80;;;0.80;;
77384;SDS011;66443;49.122;8.346;2023-12-22T13:58:21;0.70;;;0.70;;
77384;SDS011;66443;49.122;8.346;2023-12-22T14:00:46;1.10;;;0.60;;
77384;SDS011;66443;49.122;8.346;2023-12-22T14:03:11;0.60;;;0.60;;
77384;SDS011;66443;49.122;8.346;2023-12-22T14:05:36;0.67;;;0.60;;
77384;SDS011;66443;49.122;8.346;2023-12-22T14:08:03;1.03;;;0.70;;
77384;SDS011;66443;49.122;8.346;2023-12-22T14:10:28;2.17;;;0.70;;
77384;SDS011;66443;49.122;8.346;2023-12-22T14:12:54;0.70;;;0.70;;
77384;SDS011;66443;49.122;8.346;2023-12-22T14:15:19;0.73;;;0.73;;
77384;SDS011;66443;49.122;8.346;2023-12-22T14:17:44;0.97;;;0.80;;
77384;SDS011;66443;49.122;8.346;2023-12-22T14:20:09;2.27;;;1.10;;
77384;SDS011;66443;49.122;8.346;2023-12-22T14:22:35;1.00;;;1.00;;
77384;SDS011;66443;49.122;8.346;2023-12-22T14:25:00;1.70;;;0.70;;
77384;SDS011;66443;49.122;8.346;2023-12-22T14:27:26;0.97;;;0.73;;
77384;SDS011;66443;49.122;8.346;2023-12-22T14:29:51;3.70;;;0.77;;
77384;SDS011;66443;49.122;8.346;2023-12-22T14:32:16;0.70;;;0.70;;
77384;SDS011;66443;49.122;8.346;2023-12-22T14:34:44;0.70;;;0.70;;
77384;SDS011;66443;49.122;8.346;2023-12-22T14:37:10;0.80;;;0.80;;
77384;SDS011;66443;49.122;8.346;2023-12-22T14:39:35;0.70;;;0.70;;
77384;SDS011;66443;49.122;8.346;2023-12-22T14:42:00;1.50;;;0.67;;
77384;SDS011;66443;49.122;8.346;2023-12-22T14:44:27;1.30;;;1.10;;